Time;durP1;ratioP1;P1;durP2;ratioP2;P2;SDS_P1;SDS_P2;PMS_P1;PMS_P2;Temp;Humidity;BMP_temperature;BMP_pressure;BME280_temperature;BME280_humidity;BME280_pressure;Samples;Min_cycle;Max_cycle;Signal;HPM_P1;HPM_P2
2022/01/18 00:01:52;;;;;;;;;82.00;63.75;;;;;6.35;73.15;103231.06;5055942;28;46184;-61
2022/01/18 00:04:18;;;;;;;;;87.50;63.25;;;;;6.28;73.39;103231.91;5055786;28;45518;-62
2022/01/18 00:06:48;;;;;;;;;77.50;63.25;;;;;6.23;72.24;103236.28;5037558;28;45659;-60
2022/01/18 00:09:13;;;;;;;;;72.50;56.75;;;;;6.28;73.10;103239.84;5055254;28;45331;-60
2022/01/18 00:12:14;;;;;;;;;79.75;62.00;;;;;6.27;72.11;103238.09;5055207;28;46127;-62
2022/01/18 00:14:39;;;;;;;;;85.25;64.25;;;;;6.17;72.62;103236.28;5054309;28;45367;-62
2022/01/18 00:17:17;;;;;;;;;86.00;66.50;;;;;6.12;73.44;103243.28;5038315;28;45296;-61
2022/01/18 00:19:55;;;;;;;;;81.25;64.50;;;;;6.07;72.92;103240.63;5055974;28;45425;-61
2022/01/18 00:22:22;;;;;;;;;84.00;64.75;;;;;5.98;73.55;103224.72;5046234;28;45484;-62
2022/01/18 00:24:47;;;;;;;;;86.75;66.25;;;;;5.85;73.99;103233.41;5054876;28;45450;-61
2022/01/18 00:27:17;;;;;;;;;84.75;64.75;;;;;5.83;74.30;103251.91;5037420;28;45444;-62
2022/01/18 00:30:06;;;;;;;;;88.00;66.75;;;;;5.83;74.12;103232.53;5056184;28;45423;-61
2022/01/18 00:32:47;;;;;;;;;86.75;65.50;;;;;5.76;74.62;103233.38;5054714;28;45186;-61
2022/01/18 00:35:12;;;;;;;;;77.25;62.50;;;;;5.79;73.42;103250.13;5055799;28;45289;-60
2022/01/18 00:37:49;;;;;;;;;83.25;65.50;;;;;5.81;73.90;103235.16;5055417;28;45196;-61
2022/01/18 00:40:15;;;;;;;;;86.50;66.75;;;;;5.77;74.00;103214.03;5037156;28;45555;-61
2022/01/18 00:42:40;;;;;;;;;82.00;63.50;;;;;5.76;74.12;103229.00;5054987;28;46184;-61
2022/01/18 00:45:06;;;;;;;;;72.25;60.50;;;;;5.73;74.21;103225.41;5055094;28;45285;-59
2022/01/18 00:47:32;;;;;;;;;80.50;60.75;;;;;5.80;73.18;103224.59;5019830;28;45340;-60
2022/01/18 00:50:01;;;;;;;;;77.50;62.50;;;;;5.79;74.35;103207.00;5053171;28;45441;-61
2022/01/18 00:52:28;;;;;;;;;75.00;55.50;;;;;5.78;73.27;103221.97;5057560;28;45383;-61
2022/01/18 00:54:54;;;;;;;;;73.75;58.25;;;;;5.77;73.69;103230.75;5057634;28;45240;-62
2022/01/18 00:57:20;;;;;;;;;78.25;60.25;;;;;5.80;73.52;103224.59;5057824;28;45284;-61
2022/01/18 00:59:47;;;;;;;;;72.00;59.75;;;;;5.76;72.99;103218.44;5039997;28;45668;-60
2022/01/18 01:02:16;;;;;;;;;75.50;58.00;;;;;5.75;72.80;103221.94;5057894;28;45480;-62
2022/01/18 01:04:47;;;;;;;;;71.50;58.00;;;;;5.73;73.42;103220.13;5058235;28;45221;-61
2022/01/18 01:07:14;;;;;;;;;73.25;57.00;;;;;5.75;72.57;103218.44;5058328;28;45379;-61
2022/01/18 01:09:40;;;;;;;;;78.00;56.75;;;;;5.71;73.60;103214.84;5058689;28;45281;-62
2022/01/18 01:12:06;;;;;;;;;71.50;59.00;;;;;5.63;73.20;103220.09;5058161;28;46257;-61
2022/01/18 01:14:33;;;;;;;;;75.00;58.75;;;;;5.51;73.02;103212.09;5058588;28;45344;-60
2022/01/18 01:17:10;;;;;;;;;65.50;54.00;;;;;5.51;73.37;103216.50;5040703;28;45374;-60
2022/01/18 01:42:01;;;;;;;;;62.75;46.50;;;;;5.35;73.52;103230.47;5058360;28;45352;-60
2022/01/18 01:44:40;;;;;;;;;42.50;38.00;;;;;5.28;73.34;103222.50;5057808;28;46402;-61
2022/01/18 01:47:06;;;;;;;;;57.25;45.25;;;;;5.22;73.23;103225.09;5057770;28;45563;-60
2022/01/18 01:49:31;;;;;;;;;36.25;33.50;;;;;5.17;73.62;103234.69;5039382;28;45440;-61
2022/01/18 01:51:57;;;;;;;;;54.50;37.00;;;;;5.18;73.93;103228.56;5057409;28;45673;-61
2022/01/18 01:54:23;;;;;;;;;41.25;38.25;;;;;5.12;74.30;103220.59;5057113;28;45469;-61
2022/01/18 01:56:48;;;;;;;;;46.00;41.25;;;;;5.12;74.52;103222.34;5030946;28;45275;-61
2022/01/18 01:59:14;;;;;;;;;46.50;35.00;;;;;5.11;74.66;103226.75;5044454;28;45376;-61
2022/01/18 02:01:45;;;;;;;;;48.50;35.00;;;;;5.14;75.09;103221.50;5056730;28;45579;-60
2022/01/18 02:04:11;;;;;;;;;43.75;36.25;;;;;5.12;75.13;103223.25;5056206;28;45465;-60
2022/01/18 02:06:36;;;;;;;;;45.50;35.25;;;;;5.13;75.25;103229.41;5038897;28;45371;-61
2022/01/18 02:09:03;;;;;;;;;42.75;31.50;;;;;5.11;74.63;103223.22;5033282;28;45378;-61
2022/01/18 02:11:28;;;;;;;;;45.75;36.75;;;;;5.04;74.96;103219.63;5053059;28;45581;-60
2022/01/18 02:13:55;;;;;;;;;40.25;32.75;;;;;5.10;74.92;103240.81;5057255;28;46197;-61
2022/01/18 02:21:56;;;;;;;;;37.50;28.75;;;;;4.97;75.84;103231.91;5057931;28;45419;-62
2022/01/18 02:24:23;;;;;;;;;34.00;28.00;;;;;5.00;75.51;103220.50;5056574;28;46370;-61
2022/01/18 02:26:49;;;;;;;;;26.50;21.75;;;;;4.93;75.32;103221.28;5039334;28;45444;-61
2022/01/18 02:29:16;;;;;;;;;36.00;26.50;;;;;4.93;75.22;103232.72;5056895;28;45589;-61
2022/01/18 02:31:42;;;;;;;;;25.25;22.25;;;;;4.94;75.04;103220.41;5057290;28;45472;-60
2022/01/18 02:34:10;;;;;;;;;21.50;15.75;;;;;4.96;74.79;103221.34;5056937;28;45264;-61
2022/01/18 02:36:36;;;;;;;;;26.75;23.50;;;;;5.00;74.78;103225.78;5057003;28;45499;-62
2022/01/18 02:39:04;;;;;;;;;17.00;16.75;;;;;4.99;74.92;103221.38;5051966;28;45442;-60
2022/01/18 02:41:31;;;;;;;;;25.00;18.75;;;;;4.94;74.99;103217.78;5052923;28;45500;-61
2022/01/18 02:44:01;;;;;;;;;26.50;20.50;;;;;4.94;75.18;103218.66;5056274;28;45295;-61
2022/01/18 02:46:27;;;;;;;;;33.00;21.50;;;;;4.89;74.69;103219.50;5056932;28;45336;-64
2022/01/18 02:48:54;;;;;;;;;30.25;24.75;;;;;4.87;75.68;103221.25;5056193;28;45624;-61
2022/01/18 02:51:20;;;;;;;;;31.25;21.00;;;;;4.83;75.05;103211.56;5057277;28;45450;-60
2022/01/18 02:54:00;;;;;;;;;26.75;20.25;;;;;4.91;75.99;103220.41;5038588;28;46787;-59
2022/01/18 02:56:35;;;;;;;;;24.75;23.25;;;;;4.90;75.83;103216.88;5056944;28;45432;-60
2022/01/18 02:59:25;;;;;;;;;27.25;22.00;;;;;4.83;75.65;103222.09;5056146;28;45438;-61
2022/01/18 03:04:39;;;;;;;;;27.25;24.75;;;;;4.84;75.37;103208.94;5055897;28;45533;-61
2022/01/18 03:07:05;;;;;;;;;28.00;24.75;;;;;4.88;76.04;103212.47;5038893;28;45331;-61
2022/01/18 03:09:30;;;;;;;;;25.00;21.75;;;;;4.90;75.22;103202.81;5056520;28;45450;-61
2022/01/18 03:11:56;;;;;;;;;24.00;20.75;;;;;4.79;76.06;103191.28;5038149;28;45553;-61
2022/01/18 03:14:22;;;;;;;;;27.75;23.00;;;;;4.67;76.20;103182.38;5055877;28;46013;-61
2022/01/18 03:16:48;;;;;;;;;28.50;24.00;;;;;4.60;77.02;103191.13;5055610;28;45641;-60
2022/01/18 03:19:14;;;;;;;;;25.50;22.25;;;;;4.60;76.30;103180.56;5037227;28;45351;-60
2022/01/18 03:21:40;;;;;;;;;24.25;23.00;;;;;4.58;76.33;103178.78;5038011;28;45341;-60
2022/01/18 03:24:32;;;;;;;;;27.25;24.00;;;;;4.56;77.12;103173.50;5055469;28;46053;-59
2022/01/18 03:29:42;;;;;;;;;21.50;21.00;;;;;4.35;77.64;103170.66;5056186;28;45403;-60
2022/01/18 03:32:07;;;;;;;;;35.00;22.50;;;;;4.22;77.84;103166.09;5022032;28;45375;-60
2022/01/18 03:34:33;;;;;;;;;29.75;18.75;;;;;4.35;78.22;103184.69;5056044;28;45367;-62
2022/01/18 03:36:59;;;;;;;;;21.50;17.00;;;;;4.46;77.08;103179.56;5055794;28;45911;-62
2022/01/18 03:39:24;;;;;;;;;22.50;17.50;;;;;4.53;77.19;103178.72;5055957;28;45389;-64
2022/01/18 03:41:55;;;;;;;;;20.50;17.75;;;;;4.51;77.10;103171.69;5056022;28;45474;-62
2022/01/18 03:44:23;;;;;;;;;22.00;20.25;;;;;4.52;77.33;103178.72;5055567;28;46163;-61
2022/01/18 03:46:53;;;;;;;;;25.50;19.50;;;;;4.60;76.94;103180.56;5055576;28;45462;-60
2022/01/18 03:49:20;;;;;;;;;37.50;26.25;;;;;4.66;76.66;103171.81;5055982;28;45390;-61
2022/01/18 03:51:45;;;;;;;;;25.75;24.00;;;;;4.65;76.81;103163.03;5055906;28;45353;-61
2022/01/18 03:54:13;;;;;;;;;36.00;31.75;;;;;4.66;76.20;103172.72;5021349;28;46911;-62
2022/01/18 03:56:39;;;;;;;;;29.25;21.50;;;;;4.73;76.15;103182.47;5055793;28;45344;-61
2022/01/18 03:59:04;;;;;;;;;26.25;22.25;;;;;4.77;76.01;103180.72;5056547;28;45355;-61
2022/01/18 04:01:30;;;;;;;;;35.00;22.75;;;;;4.81;75.71;103179.00;5056026;28;45300;-60
2022/01/18 04:03:55;;;;;;;;;24.50;20.00;;;;;4.82;75.69;103175.47;5037816;28;46064;-61
2022/01/18 04:06:21;;;;;;;;;34.50;24.75;;;;;4.85;75.73;103176.41;5055074;28;45366;-61
2022/01/18 04:08:46;;;;;;;;;32.00;24.25;;;;;4.88;75.90;103181.72;5055558;28;45415;-60
2022/01/18 04:11:11;;;;;;;;;29.25;27.25;;;;;4.93;75.89;103173.81;5037628;28;45281;-61
2022/01/18 04:13:37;;;;;;;;;26.75;21.50;;;;;4.97;75.44;103175.63;5056183;28;46214;-60
2022/01/18 04:16:03;;;;;;;;;28.00;27.00;;;;;5.00;75.22;103170.38;5054979;28;45307;-60
2022/01/18 04:28:51;;;;;;;;;28.25;26.25;;;;;5.10;75.83;103163.44;5059217;28;45292;-60
2022/01/18 04:31:17;;;;;;;;;30.50;28.75;;;;;5.06;75.54;103172.19;5059388;28;45628;-60
2022/01/18 04:33:43;;;;;;;;;32.00;29.50;;;;;5.07;75.04;103177.47;5029383;28;47265;-61
2022/01/18 04:36:09;;;;;;;;;33.75;29.00;;;;;5.01;76.04;103185.34;5046692;28;45536;-60
2022/01/18 04:38:36;;;;;;;;;27.25;23.25;;;;;4.87;76.07;103171.16;5059447;28;45451;-60
2022/01/18 04:41:07;;;;;;;;;54.25;28.75;;;;;4.86;75.74;103177.31;5059396;28;45535;-61
2022/01/18 04:48:56;;;;;;;;;38.50;29.00;;;;;4.72;76.92;103167.50;5058944;28;45449;-61
2022/01/18 04:51:22;;;;;;;;;33.00;32.25;;;;;4.64;77.66;103161.28;5059354;28;45384;-60
2022/01/18 04:53:58;;;;;;;;;36.75;24.50;;;;;4.65;77.28;103160.41;5058100;28;46043;-61
2022/01/18 04:57:51;;;;;;;;;31.75;23.75;;;;;4.56;77.53;103156.81;5058557;28;45328;-61
2022/01/18 04:59:13;;;;;;;;;40.75;27.00;;;;;4.48;78.14;103164.63;5058937;28;45315;-61
2022/01/18 05:01:41;;;;;;;;;40.75;32.50;;;;;4.46;78.36;103160.22;5059022;28;45431;-60
2022/01/18 05:04:07;;;;;;;;;35.00;28.50;;;;;4.40;78.64;103161.03;5041042;28;46783;-60
2022/01/18 05:06:33;;;;;;;;;33.00;27.75;;;;;4.44;79.02;103160.22;5058375;28;45392;-60
2022/01/18 05:09:07;;;;;;;;;38.00;31.25;;;;;4.37;78.41;103166.28;5058207;28;45375;-60
2022/01/18 05:11:39;;;;;;;;;33.25;26.75;;;;;4.35;79.33;103168.00;5058577;28;45573;-60
2022/01/18 05:19:27;;;;;;;;;35.00;27.50;;;;;4.26;79.09;103178.44;5057786;28;45282;-63
2022/01/18 05:24:18;;;;;;;;;24.00;16.75;;;;;4.24;78.46;103180.16;5057653;28;45954;-59
2022/01/18 05:26:44;;;;;;;;;24.75;20.50;;;;;4.09;78.28;103176.50;5040351;28;45420;-61
2022/01/18 05:29:09;;;;;;;;;24.25;20.00;;;;;4.10;78.82;103172.09;5058328;28;45911;-60
2022/01/18 05:31:34;;;;;;;;;29.00;24.75;;;;;4.03;78.67;103159.72;5058294;28;45244;-60
2022/01/18 05:34:00;;;;;;;;;46.25;27.00;;;;;4.01;79.54;103167.59;5056748;28;45901;-60
2022/01/18 05:36:25;;;;;;;;;30.25;26.25;;;;;4.09;78.88;103165.97;5039424;28;45402;-60
2022/01/18 05:38:51;;;;;;;;;21.25;19.75;;;;;4.07;78.82;103161.53;5057138;28;45362;-60
2022/01/18 05:41:16;;;;;;;;;29.00;22.25;;;;;4.08;78.75;103156.28;5058315;28;45421;-62
2022/01/18 05:43:42;;;;;;;;;16.75;14.75;;;;;4.12;79.01;103160.72;5057926;28;45979;-60
2022/01/18 05:46:08;;;;;;;;;26.75;21.50;;;;;4.18;78.53;103149.41;5058372;28;45394;-60
2022/01/18 05:48:33;;;;;;;;;25.50;21.25;;;;;4.24;78.18;103148.56;5058325;28;45420;-62
2022/01/18 05:50:59;;;;;;;;;25.50;23.00;;;;;4.32;77.48;103141.63;5058057;28;45445;-60
2022/01/18 05:53:30;;;;;;;;;20.50;18.75;;;;;4.31;77.72;103146.03;5033224;28;46504;-61
2022/01/18 05:55:57;;;;;;;;;30.25;20.50;;;;;4.32;77.15;103139.00;5043051;28;45556;-61
2022/01/18 05:58:22;;;;;;;;;26.25;22.50;;;;;4.37;76.85;103150.47;5055652;28;46242;-60
2022/01/18 06:00:52;;;;;;;;;28.75;24.50;;;;;4.31;76.84;103130.22;5055723;28;45559;-60
2022/01/18 06:03:27;;;;;;;;;21.00;21.00;;;;;4.39;76.79;103146.09;5056094;28;45524;-59
2022/01/18 06:08:37;;;;;;;;;29.50;21.00;;;;;4.42;76.11;103154.00;5057841;28;45458;-61
2022/01/18 06:11:03;;;;;;;;;28.00;24.00;;;;;4.45;76.43;103154.06;5039960;28;45438;-59
2022/01/18 06:13:29;;;;;;;;;25.00;23.00;;;;;4.42;76.88;103159.28;5057423;28;45936;-61
2022/01/18 06:15:54;;;;;;;;;25.00;23.25;;;;;4.41;76.16;103152.25;5055797;28;45911;-61
2022/01/18 06:18:19;;;;;;;;;26.75;25.00;;;;;4.34;76.81;103155.72;5053388;28;45296;-61
2022/01/18 06:20:45;;;;;;;;;37.25;27.00;;;;;4.38;76.77;103163.66;5039515;28;45560;-61
2022/01/18 06:23:11;;;;;;;;;30.75;27.75;;;;;4.41;76.50;103162.78;5037029;28;45995;-61
2022/01/18 06:25:37;;;;;;;;;37.00;28.75;;;;;4.42;76.70;103168.06;5057513;28;45320;-61
2022/01/18 06:28:03;;;;;;;;;19.00;17.75;;;;;4.44;76.13;103165.47;5039313;28;45381;-60
2022/01/18 06:30:28;;;;;;;;;27.50;23.75;;;;;4.42;76.06;103167.19;5057761;28;45584;-60
2022/01/18 06:32:54;;;;;;;;;31.50;28.25;;;;;4.52;76.35;103179.59;5057095;28;45501;-60
2022/01/18 06:35:19;;;;;;;;;21.00;21.00;;;;;4.51;76.03;103172.56;5039001;28;45345;-62
2022/01/18 06:37:44;;;;;;;;;23.50;19.25;;;;;4.51;76.20;103175.19;5057607;28;45294;-65
2022/01/18 06:40:12;;;;;;;;;33.75;27.50;;;;;4.41;75.77;103158.41;5057859;28;45465;-65
2022/01/18 06:42:38;;;;;;;;;35.75;34.50;;;;;4.46;75.85;103176.03;5057104;28;45994;-66
2022/01/18 06:45:04;;;;;;;;;31.25;28.50;;;;;4.50;76.14;103183.97;5038979;28;45763;-63
2022/01/18 06:47:30;;;;;;;;;34.25;29.00;;;;;4.49;76.01;103176.94;5056282;28;45418;-63
2022/01/18 06:49:58;;;;;;;;;38.00;27.25;;;;;4.48;75.59;103180.44;5044886;28;45593;-64
2022/01/18 06:52:24;;;;;;;;;30.25;26.00;;;;;4.46;75.83;103183.94;5052494;28;45557;-63
2022/01/18 06:54:49;;;;;;;;;33.25;26.75;;;;;4.47;76.17;103173.41;5038917;28;45520;-65
2022/01/18 06:57:14;;;;;;;;;38.00;31.25;;;;;4.41;76.18;103173.31;5039596;28;45387;-65
2022/01/18 06:59:40;;;;;;;;;27.75;24.75;;;;;4.40;76.55;103171.56;5057522;28;45404;-64
2022/01/18 07:02:06;;;;;;;;;31.75;26.75;;;;;4.48;75.94;103176.94;5038969;28;45580;-64
2022/01/18 07:04:31;;;;;;;;;23.50;21.25;;;;;4.46;76.12;103171.66;5038644;28;45663;-65
2022/01/18 07:06:58;;;;;;;;;29.25;27.25;;;;;4.47;75.64;103177.81;5038811;28;45403;-64
2022/01/18 07:09:25;;;;;;;;;31.00;27.50;;;;;4.41;75.73;103163.66;5054900;28;45660;-63
2022/01/18 07:11:53;;;;;;;;;24.25;20.50;;;;;4.43;75.66;103172.50;5048382;28;46135;-64
2022/01/18 07:14:18;;;;;;;;;42.00;34.75;;;;;4.42;76.20;103148.75;5056629;28;45391;-61
2022/01/18 07:16:44;;;;;;;;;31.25;27.00;;;;;4.50;75.70;103162.91;5057615;28;45454;-63
2022/01/18 07:19:10;;;;;;;;;24.50;19.50;;;;;4.53;75.45;103168.19;5039018;28;45610;-65
2022/01/18 07:21:35;;;;;;;;;31.25;28.25;;;;;4.57;76.04;103169.13;5056264;28;47057;-64
2022/01/18 07:24:06;;;;;;;;;27.75;26.50;;;;;4.57;75.26;103170.00;5055406;28;45379;-66
2022/01/18 07:26:32;;;;;;;;;30.75;26.50;;;;;4.46;76.17;103157.59;5055640;28;45518;-65
2022/01/18 07:28:58;;;;;;;;;18.50;15.25;;;;;4.40;75.86;103163.66;5038467;28;45500;-66
2022/01/18 07:31:24;;;;;;;;;24.50;22.25;;;;;4.38;76.04;103157.50;5055173;28;46489;-65
2022/01/18 07:33:49;;;;;;;;;24.75;21.50;;;;;4.39;77.17;103156.63;5037373;28;45499;-65
2022/01/18 07:36:14;;;;;;;;;30.50;25.00;;;;;4.41;76.79;103147.88;5037782;28;45453;-65
2022/01/18 07:38:40;;;;;;;;;27.75;22.50;;;;;4.50;76.43;103152.34;5056018;28;45574;-65
2022/01/18 07:41:05;;;;;;;;;29.25;23.25;;;;;4.54;75.48;103146.22;5055391;28;45649;-66
2022/01/18 07:43:31;;;;;;;;;25.25;23.50;;;;;4.55;75.62;103144.47;5056191;28;45331;-64
2022/01/18 07:45:56;;;;;;;;;23.25;21.00;;;;;4.55;76.37;103144.47;5038626;28;45385;-65
2022/01/18 07:48:23;;;;;;;;;43.50;29.25;;;;;4.49;76.18;103140.03;5056688;28;45518;-65
2022/01/18 07:50:57;;;;;;;;;27.00;21.00;;;;;4.59;76.55;103146.28;5056597;28;45229;-65
2022/01/18 07:53:22;;;;;;;;;29.75;26.50;;;;;4.56;76.34;103147.16;5037929;28;45363;-68
2022/01/18 07:55:48;;;;;;;;;26.00;24.00;;;;;4.55;75.65;103145.38;5022011;28;45417;-65
2022/01/18 07:58:14;;;;;;;;;34.25;24.00;;;;;4.48;75.78;103137.41;5056387;28;45453;-66
2022/01/18 08:00:39;;;;;;;;;31.25;29.75;;;;;4.59;76.14;103149.81;5056043;28;45999;-65
2022/01/18 08:03:05;;;;;;;;;24.25;22.75;;;;;4.65;75.45;103154.25;5055895;28;45197;-64
2022/01/18 08:05:31;;;;;;;;;24.50;19.75;;;;;4.65;75.70;103141.06;5055898;28;45319;-65
2022/01/18 08:07:56;;;;;;;;;28.25;25.75;;;;;4.73;75.67;103153.47;5056323;28;45462;-65
2022/01/18 08:10:22;;;;;;;;;32.50;30.25;;;;;4.74;76.02;103136.78;5054528;28;47038;-66
2022/01/18 08:12:47;;;;;;;;;28.50;21.75;;;;;4.78;75.33;103148.22;5055975;28;45314;-64
2022/01/18 08:15:18;;;;;;;;;28.50;24.25;;;;;4.78;75.70;103124.50;5055801;28;45370;-67
2022/01/18 08:17:47;;;;;;;;;26.50;25.25;;;;;4.85;75.65;103126.31;5037830;28;45569;-66
2022/01/18 08:20:14;;;;;;;;;31.75;25.25;;;;;4.91;76.05;103128.09;5055934;28;45693;-67
2022/01/18 08:22:41;;;;;;;;;28.75;24.50;;;;;4.97;76.04;103128.19;5037580;28;45324;-66
2022/01/18 08:25:07;;;;;;;;;33.25;26.75;;;;;4.99;75.69;103129.06;5055949;28;45523;-66
2022/01/18 08:27:32;;;;;;;;;33.75;29.00;;;;;5.02;75.47;103137.00;5038265;28;45484;-65
2022/01/18 08:29:57;;;;;;;;;33.00;27.75;;;;;5.04;75.11;103138.75;5055830;28;46020;-67
2022/01/18 08:32:23;;;;;;;;;42.75;31.50;;;;;5.02;74.94;103144.91;5037380;28;45671;-65
2022/01/18 08:34:48;;;;;;;;;43.75;31.25;;;;;5.08;75.29;103147.59;5037518;28;47120;-65
2022/01/18 08:37:14;;;;;;;;;44.50;36.75;;;;;5.12;74.82;103151.13;5055491;28;45374;-66
2022/01/18 08:39:39;;;;;;;;;33.75;31.75;;;;;5.19;75.47;103145.00;5055417;28;46090;-65
2022/01/18 08:42:05;;;;;;;;;34.50;32.00;;;;;5.23;75.38;103133.63;5055592;28;45423;-66
2022/01/18 08:44:31;;;;;;;;;28.00;27.00;;;;;5.22;75.59;103140.66;5055528;28;45249;-64
2022/01/18 08:46:57;;;;;;;;;33.50;24.75;;;;;5.31;74.73;103150.38;5055638;28;45390;-65
2022/01/18 08:49:22;;;;;;;;;38.50;32.00;;;;;5.35;74.42;103151.31;5055388;28;45445;-66
2022/01/18 08:51:48;;;;;;;;;36.75;27.75;;;;;5.30;75.17;103133.66;5055363;28;45386;-66
2022/01/18 08:54:13;;;;;;;;;35.00;31.00;;;;;5.41;75.05;103146.06;5055045;28;45424;-65
2022/01/18 08:56:39;;;;;;;;;40.00;32.00;;;;;5.44;74.89;103141.66;5055445;28;45533;-65
2022/01/18 08:59:04;;;;;;;;;30.25;27.50;;;;;5.47;74.89;103147.00;5054992;28;46307;-66
2022/01/18 09:01:29;;;;;;;;;32.50;25.50;;;;;5.54;75.05;103134.69;5036892;28;45338;-66
2022/01/18 09:03:55;;;;;;;;;32.00;29.50;;;;;5.58;75.14;103137.34;5054956;28;45595;-65
2022/01/18 09:06:23;;;;;;;;;28.00;28.00;;;;;5.67;74.88;103133.00;5050953;28;45889;-65
2022/01/18 09:08:56;;;;;;;;;33.25;31.00;;;;;5.73;73.64;103138.28;5035531;28;45383;-66
2022/01/18 09:11:24;;;;;;;;;38.75;32.50;;;;;5.71;74.62;103133.00;5051000;28;45387;-65
2022/01/18 09:13:50;;;;;;;;;36.50;33.50;;;;;5.74;73.39;103132.16;5038243;28;45411;-66
2022/01/18 09:16:16;;;;;;;;;28.75;26.75;;;;;5.83;73.86;103125.13;5038627;28;45558;-66
2022/01/18 09:18:43;;;;;;;;;31.00;31.00;;;;;5.86;73.61;103127.81;5038299;28;46036;-65
2022/01/18 09:21:09;;;;;;;;;36.75;34.50;;;;;5.90;74.08;103115.53;5020381;28;45360;-65
2022/01/18 09:23:37;;;;;;;;;29.25;29.25;;;;;5.97;73.45;103138.44;5038592;28;45453;-65
2022/01/18 09:26:03;;;;;;;;;25.50;21.25;;;;;6.00;74.09;103142.88;5020521;28;45208;-65
2022/01/18 09:28:28;;;;;;;;;39.50;32.75;;;;;6.03;74.09;103137.59;5020294;28;46468;-65
2022/01/18 09:30:54;;;;;;;;;38.25;33.50;;;;;5.90;73.99;103123.44;5020438;28;45392;-64
2022/01/18 09:33:20;;;;;;;;;42.00;30.00;;;;;6.03;74.88;103138.47;5038648;28;45253;-65
2022/01/18 09:35:45;;;;;;;;;33.00;27.50;;;;;6.06;74.95;103133.19;5042981;28;45582;-66
2022/01/18 09:38:11;;;;;;;;;39.50;31.00;;;;;6.10;74.27;103132.31;5058066;28;45451;-66
2022/01/18 09:40:38;;;;;;;;;39.25;32.25;;;;;6.13;74.68;103131.47;5058294;28;45419;-65
2022/01/18 09:43:10;;;;;;;;;40.00;35.50;;;;;6.18;74.55;103137.63;5058632;28;45465;-64
2022/01/18 09:45:36;;;;;;;;;41.00;37.00;;;;;6.16;74.15;103134.09;5041316;28;45357;-66
2022/01/18 09:48:03;;;;;;;;;40.25;32.25;;;;;6.18;74.48;103127.94;5039805;28;47611;-66
2022/01/18 09:50:33;;;;;;;;;32.50;30.50;;;;;6.23;75.09;103141.16;5039837;28;45327;-66
2022/01/18 09:53:00;;;;;;;;;36.25;32.75;;;;;6.21;75.26;103127.94;5057849;28;45264;-65
2022/01/18 09:55:29;;;;;;;;;46.75;36.00;;;;;6.28;74.47;103126.22;5058460;28;45418;-65
2022/01/18 09:57:56;;;;;;;;;36.00;27.50;;;;;6.32;74.46;103133.25;5058445;28;45525;-66
2022/01/18 10:00:24;;;;;;;;;32.50;30.00;;;;;6.41;74.41;103133.28;5058428;28;45377;-65
2022/01/18 10:02:50;;;;;;;;;47.00;33.00;;;;;6.53;74.93;103140.34;5058468;28;45289;-65
2022/01/18 10:05:37;;;;;;;;;48.00;34.25;;;;;6.60;74.62;103135.94;5057698;28;45613;-67
2022/01/18 10:08:10;;;;;;;;;29.50;27.25;;;;;6.60;74.63;103130.66;5037750;28;45449;-65
2022/01/18 10:10:53;;;;;;;;;42.75;32.25;;;;;6.67;74.08;103122.75;5037608;28;45371;-65
2022/01/18 10:13:27;;;;;;;;;39.00;36.75;;;;;6.78;74.71;103131.56;5037425;28;45288;-68
2022/01/18 10:16:00;;;;;;;;;39.75;36.50;;;;;6.86;73.80;103125.38;5019987;28;45718;-65
2022/01/18 10:18:47;;;;;;;;;36.75;30.50;;;;;6.93;74.29;103125.38;5037809;28;45541;-66
2022/01/18 10:21:23;;;;;;;;;36.25;29.75;;;;;7.04;73.90;103120.97;5035601;28;45463;-65
2022/01/18 10:23:49;;;;;;;;;33.75;30.00;;;;;7.03;73.89;103100.69;5036091;28;45264;-66
2022/01/18 10:26:19;;;;;;;;;37.75;37.00;;;;;7.22;73.87;103108.59;5037266;28;45366;-66
2022/01/18 10:28:45;;;;;;;;;31.50;27.50;;;;;7.29;73.64;103103.28;5037211;28;46257;-66
2022/01/18 10:31:42;;;;;;;;;36.25;31.75;;;;;7.38;73.11;103105.00;5036949;28;45717;-66
2022/01/18 10:34:40;;;;;;;;;42.00;32.50;;;;;7.46;73.10;103105.00;5037297;28;45427;-66
2022/01/18 10:37:05;;;;;;;;;32.75;30.50;;;;;7.52;72.77;103097.91;5052536;28;45346;-65
2022/01/18 10:39:38;;;;;;;;;35.50;30.50;;;;;7.55;72.74;103082.03;5057406;28;46217;-65
2022/01/18 10:42:30;;;;;;;;;35.75;32.75;;;;;7.67;72.46;103079.28;5057322;28;45282;-64
2022/01/18 10:45:04;;;;;;;;;30.50;29.25;;;;;7.77;72.34;103074.84;5057553;28;45414;-66
2022/01/18 10:47:30;;;;;;;;;39.75;33.75;;;;;7.77;72.25;103068.66;5057196;28;45506;-67
2022/01/18 10:49:57;;;;;;;;;32.25;26.50;;;;;7.88;71.97;103058.91;5022643;28;46350;-67
2022/01/18 10:52:26;;;;;;;;;36.50;30.50;;;;;7.98;70.90;103063.25;5055919;28;45425;-66
2022/01/18 10:54:58;;;;;;;;;37.00;26.50;;;;;8.04;70.82;103057.03;5056885;28;45516;-65
2022/01/18 10:57:38;;;;;;;;;39.50;33.00;;;;;8.15;71.37;103050.78;5057543;28;45446;-66
2022/01/18 11:00:13;;;;;;;;;34.50;31.75;;;;;8.19;70.31;103041.91;5056949;28;46264;-65
2022/01/18 11:02:41;;;;;;;;;38.50;33.50;;;;;8.29;70.08;103040.94;5039269;28;45441;-63
2022/01/18 11:05:20;;;;;;;;;45.75;35.75;;;;;8.36;69.98;103028.56;5056879;28;45369;-65
2022/01/18 11:07:47;;;;;;;;;40.25;33.50;;;;;8.46;69.03;103024.06;5034517;28;45606;-67
2022/01/18 11:10:15;;;;;;;;;29.25;24.00;;;;;8.57;68.13;103023.06;5036849;28;45940;-66
2022/01/18 11:12:53;;;;;;;;;29.00;24.25;;;;;8.65;68.15;103008.88;5036376;28;45419;-65
2022/01/18 11:15:22;;;;;;;;;31.25;26.50;;;;;8.73;67.90;103010.56;5018663;28;45364;-64
2022/01/18 11:17:58;;;;;;;;;32.00;24.25;;;;;8.79;67.81;103007.84;5035757;28;45527;-62
2022/01/18 11:20:28;;;;;;;;;27.25;23.75;;;;;8.93;67.37;103004.16;5035239;28;45433;-66
2022/01/18 11:22:55;;;;;;;;;34.25;27.75;;;;;9.01;67.38;103002.31;5036389;28;45346;-66
2022/01/18 11:25:22;;;;;;;;;31.25;30.00;;;;;9.12;67.52;102995.13;5018904;28;45412;-65
2022/01/18 11:27:51;;;;;;;;;33.50;24.50;;;;;9.19;65.61;102998.56;5036744;28;45542;-67
2022/01/18 11:30:24;;;;;;;;;37.50;24.75;;;;;9.18;66.10;102983.53;5036433;28;46735;-65
2022/01/18 11:32:55;;;;;;;;;37.00;26.00;;;;;9.23;65.69;102981.69;5018596;28;45497;-68
2022/01/18 11:35:38;;;;;;;;;29.25;26.50;;;;;9.29;66.13;102982.50;5037237;28;45295;-66
2022/01/18 11:38:25;;;;;;;;;37.25;27.00;;;;;9.32;65.43;102966.53;5038524;28;45367;-67
2022/01/18 11:40:54;;;;;;;;;31.50;22.25;;;;;9.37;64.85;102962.00;5056409;28;45363;-67
2022/01/18 11:43:37;;;;;;;;;29.25;20.50;;;;;9.42;64.79;102954.88;5038347;28;45332;-66
2022/01/18 11:46:34;;;;;;;;;24.75;19.25;;;;;9.46;64.13;102958.38;5056218;28;45515;-64
2022/01/18 11:49:16;;;;;;;;;18.25;16.00;;;;;9.45;64.44;102957.50;5056885;28;45403;-64
2022/01/18 11:51:48;;;;;;;;;23.00;19.50;;;;;9.57;63.18;102953.78;5037982;28;47910;-67
2022/01/18 11:57:15;;;;;;;;;28.00;19.50;;;;;9.72;62.33;102929.66;5056161;28;45311;-66
2022/01/18 11:59:41;;;;;;;;;20.50;18.75;;;;;9.75;61.25;102926.06;5038387;28;45469;-66
2022/01/18 12:02:07;;;;;;;;;19.50;15.50;;;;;9.77;61.80;102921.63;5055898;28;45492;-65
2022/01/18 12:04:46;;;;;;;;;20.00;18.50;;;;;9.85;62.11;102925.03;5055676;28;45343;-64
2022/01/18 12:07:34;;;;;;;;;21.75;15.75;;;;;9.87;61.29;102915.22;5056048;28;45264;-66
2022/01/18 12:10:01;;;;;;;;;9.25;9.25;;;;;9.92;62.05;102917.84;5038209;28;45429;-66
2022/01/18 12:12:35;;;;;;;;;12.25;10.00;;;;;9.98;61.15;102910.63;5056088;28;46312;-66
2022/01/18 12:15:02;;;;;;;;;11.00;8.25;;;;;9.97;60.68;102894.72;5056110;28;45465;-67
2022/01/18 12:17:45;;;;;;;;;15.25;11.50;;;;;9.98;61.06;102888.47;5056209;28;45329;-64
2022/01/18 12:20:33;;;;;;;;;13.50;10.25;;;;;9.99;60.67;102896.44;5038061;28;45464;-65
2022/01/18 12:23:10;;;;;;;;;25.00;17.75;;;;;10.05;60.22;102891.03;5056144;28;46003;-65
2022/01/18 12:25:55;;;;;;;;;8.00;6.00;;;;;10.07;60.86;102884.81;5055722;28;45264;-65
2022/01/18 12:28:44;;;;;;;;;15.00;12.00;;;;;10.03;60.24;102879.53;5037698;28;45415;-66